createdAt,value
2023-02-27T00:00:37.672Z,6.39
2023-02-27T00:03:12.081Z,6.35
2023-02-27T00:05:45.540Z,6.30
2023-02-27T00:08:18.978Z,6.25
2023-02-27T00:10:53.388Z,6.22
2023-02-27T00:13:27.198Z,6.20
2023-02-27T00:16:00.607Z,6.18
2023-02-27T00:18:34.156Z,6.16
2023-02-27T00:21:07.687Z,6.15
2023-02-27T00:23:40.411Z,6.14
2023-02-27T00:26:13.459Z,6.15
2023-02-27T00:28:47.887Z,6.17
2023-02-27T00:31:20.697Z,6.18
2023-02-27T00:33:53.709Z,6.18
2023-02-27T00:36:26.799Z,6.17
2023-02-27T00:38:59.572Z,6.18
2023-02-27T00:41:32.639Z,6.18
2023-02-27T00:44:06.641Z,6.15
2023-02-27T00:46:40.155Z,6.13
2023-02-27T00:49:13.531Z,6.12
2023-02-27T00:51:46.966Z,6.11
2023-02-27T00:54:19.695Z,6.11
2023-02-27T00:56:52.856Z,6.12
2023-02-27T00:59:25.793Z,6.12
2023-02-27T01:01:59.220Z,6.14
2023-02-27T01:04:33.999Z,6.13
2023-02-27T01:07:06.958Z,6.12
2023-02-27T01:09:40.149Z,6.12
2023-02-27T01:12:13.712Z,6.09
2023-02-27T01:14:46.459Z,6.08
2023-02-27T01:17:21.572Z,6.06
2023-02-27T01:19:54.657Z,6.03
2023-02-27T01:22:28.674Z,5.98
2023-02-27T01:25:02.263Z,5.93
2023-02-27T01:27:35.290Z,5.88
2023-02-27T01:30:11.768Z,5.83
2023-02-27T01:32:46.909Z,5.80
2023-02-27T01:35:21.132Z,5.78
2023-02-27T01:37:54.254Z,5.78
2023-02-27T01:40:27.200Z,5.78
2023-02-27T01:42:59.948Z,5.80
2023-02-27T01:45:36.809Z,5.82
2023-02-27T01:48:21.228Z,5.87
2023-02-27T01:51:08.046Z,5.86
2023-02-27T01:53:43.074Z,5.88
2023-02-27T01:56:29.059Z,5.89
2023-02-27T01:59:06.192Z,5.91
2023-02-27T02:01:39.603Z,5.89
2023-02-27T02:04:22.848Z,5.92
2023-02-27T02:07:09.533Z,5.96
2023-02-27T02:09:48.256Z,6.00
2023-02-27T02:12:24.233Z,6.03
2023-02-27T02:14:57.853Z,6.04
2023-02-27T02:17:53.540Z,6.06
2023-02-27T02:20:38.251Z,6.06
2023-02-27T02:23:43.031Z,6.07
2023-02-27T02:26:33.571Z,6.08
2023-02-27T02:29:47.421Z,6.11
2023-02-27T02:32:50.347Z,6.14
2023-02-27T02:35:37.196Z,6.18
2023-02-27T02:38:35.874Z,6.16
2023-02-27T02:41:46.497Z,6.14
2023-02-27T02:44:43.425Z,6.08
2023-02-27T02:47:58.748Z,6.01
2023-02-27T02:51:09.780Z,5.97
2023-02-27T02:54:08.865Z,5.92
2023-02-27T02:56:49.357Z,5.89
2023-02-27T02:59:41.999Z,5.88
2023-02-27T03:02:22.152Z,5.85
2023-02-27T03:05:13.516Z,5.84
2023-02-27T03:08:12.791Z,5.85
2023-02-27T03:10:59.950Z,5.82
2023-02-27T03:13:52.245Z,5.78
2023-02-27T03:16:35.551Z,5.78
2023-02-27T03:19:27.192Z,5.76
2023-02-27T03:22:19.204Z,5.75
2023-02-27T03:24:55.798Z,5.75
2023-02-27T03:27:33.726Z,5.74
2023-02-27T03:30:10.567Z,5.71
2023-02-27T03:32:49.629Z,5.69
2023-02-27T03:35:23.746Z,5.70
2023-02-27T03:38:35.829Z,5.71
2023-02-27T03:41:19.884Z,5.70
2023-02-27T03:44:08.718Z,5.66
2023-02-27T03:46:43.136Z,5.64
2023-02-27T03:49:15.963Z,5.63
2023-02-27T03:51:48.894Z,5.61
2023-02-27T03:54:27.543Z,5.62
2023-02-27T03:57:09.333Z,5.64
2023-02-27T03:59:43.243Z,5.66
2023-02-27T04:02:16.651Z,5.64
2023-02-27T04:04:49.653Z,5.64
2023-02-27T04:08:05.158Z,5.62
2023-02-27T04:11:08.728Z,5.64
2023-02-27T04:14:07.038Z,5.67
2023-02-27T04:17:04.100Z,5.71
2023-02-27T04:19:47.561Z,5.76
2023-02-27T04:22:39.438Z,5.78
2023-02-27T04:25:22.880Z,5.79
2023-02-27T04:28:03.326Z,5.80
2023-02-27T04:30:56.271Z,5.81
2023-02-27T04:33:45.517Z,5.84
2023-02-27T04:37:01.378Z,5.85
2023-02-27T04:39:40.069Z,5.84
2023-02-27T04:42:19.701Z,5.83
2023-02-27T04:44:57.227Z,5.83
2023-02-27T04:47:34.812Z,5.84
2023-02-27T04:50:12.388Z,5.86
2023-02-27T04:52:59.973Z,5.90
2023-02-27T04:55:39.139Z,5.90
2023-02-27T04:58:19.057Z,5.90
2023-02-27T05:00:56.959Z,5.91
2023-02-27T05:03:34.877Z,5.91
2023-02-27T05:06:08.086Z,5.86
2023-02-27T05:09:08.296Z,5.84
2023-02-27T05:11:45.855Z,5.82
2023-02-27T05:14:24.107Z,5.84
2023-02-27T05:17:16.546Z,5.88
2023-02-27T05:19:49.769Z,5.91
2023-02-27T05:22:33.647Z,5.90
2023-02-27T05:26:02.922Z,5.89
2023-02-27T05:28:51.319Z,5.87
2023-02-27T05:31:34.274Z,5.92
2023-02-27T05:34:16.714Z,5.97
2023-02-27T05:37:02.926Z,6.03
2023-02-27T05:39:38.776Z,6.07
2023-02-27T05:42:24.814Z,6.10
2023-02-27T05:45:02.563Z,6.10
2023-02-27T05:47:37.486Z,6.11
2023-02-27T05:50:20.899Z,6.15
2023-02-27T05:52:55.390Z,6.19
2023-02-27T05:55:35.549Z,6.22
2023-02-27T05:58:40.087Z,6.26
2023-02-27T06:01:14.066Z,6.29
2023-02-27T06:03:47.076Z,6.36
2023-02-27T06:06:21.612Z,6.42
2023-02-27T06:08:54.880Z,6.46
2023-02-27T06:11:28.742Z,6.49
2023-02-27T06:14:02.029Z,6.47
2023-02-27T06:16:36.942Z,6.45
2023-02-27T06:19:11.083Z,6.43
2023-02-27T06:21:43.746Z,6.40
2023-02-27T06:24:17.990Z,6.42
2023-02-27T06:26:51.460Z,6.46
2023-02-27T06:29:24.262Z,6.52
2023-02-27T06:31:57.167Z,6.62
2023-02-27T06:34:29.922Z,6.72
2023-02-27T06:37:04.309Z,6.83
2023-02-27T06:39:37.392Z,6.94
2023-02-27T06:42:10.197Z,7.06
2023-02-27T06:44:43.223Z,7.17
2023-02-27T06:47:16.082Z,7.25
2023-02-27T06:49:49.431Z,7.38
2023-02-27T06:52:23.369Z,7.51
2023-02-27T06:54:56.377Z,7.67
2023-02-27T06:57:29.181Z,7.85
2023-02-27T07:00:02.088Z,8.04
2023-02-27T07:02:35.699Z,8.23
2023-02-27T07:05:11.983Z,8.43
2023-02-27T07:07:44.990Z,8.62
2023-02-27T07:10:18.378Z,8.82
2023-02-27T07:12:51.098Z,9.00
2023-02-27T07:15:25.292Z,9.17
2023-02-27T07:17:58.567Z,9.31
2023-02-27T07:20:31.773Z,9.44
2023-02-27T07:23:04.977Z,9.54
2023-02-27T07:25:38.328Z,9.62
2023-02-27T07:28:11.552Z,9.68
2023-02-27T07:30:44.745Z,9.74
2023-02-27T07:33:17.720Z,9.78
2023-02-27T07:35:50.968Z,9.85
2023-02-27T07:38:24.364Z,9.89
2023-02-27T07:40:58.886Z,9.92
2023-02-27T07:43:31.744Z,9.96
2023-02-27T07:46:07.387Z,9.98
2023-02-27T07:48:40.628Z,10.05
2023-02-27T07:51:13.509Z,10.12
2023-02-27T07:53:46.986Z,10.17
2023-02-27T07:56:20.345Z,10.24
2023-02-27T07:58:54.200Z,10.32
2023-02-27T08:01:27.337Z,10.38
2023-02-27T08:03:59.960Z,10.42
2023-02-27T08:06:33.504Z,10.49
2023-02-27T08:09:06.347Z,10.57
2023-02-27T08:11:39.979Z,10.66
2023-02-27T08:14:12.642Z,10.73
2023-02-27T08:16:45.585Z,10.81
2023-02-27T08:19:18.333Z,10.88
2023-02-27T08:21:51.129Z,10.94
2023-02-27T08:24:24.176Z,11.02
2023-02-27T08:26:57.609Z,11.10
2023-02-27T08:29:32.813Z,11.16
2023-02-27T08:32:06.040Z,11.19
2023-02-27T08:34:39.503Z,11.23
2023-02-27T08:37:12.680Z,11.27
2023-02-27T08:39:45.713Z,11.29
2023-02-27T08:42:19.289Z,11.29
2023-02-27T08:44:52.685Z,11.30
2023-02-27T08:47:25.432Z,11.29
2023-02-27T08:49:58.260Z,11.30
2023-02-27T08:52:31.288Z,11.32
2023-02-27T08:55:04.894Z,11.35
2023-02-27T08:57:38.185Z,11.40
2023-02-27T09:00:14.871Z,11.48
2023-02-27T09:02:48.048Z,11.55
2023-02-27T09:05:21.131Z,11.65
2023-02-27T09:07:55.716Z,11.71
2023-02-27T09:10:28.844Z,11.81
2023-02-27T09:13:02.366Z,11.87
2023-02-27T09:15:36.720Z,11.91
2023-02-27T09:18:09.916Z,11.96
2023-02-27T09:20:43.547Z,11.99
2023-02-27T09:23:16.353Z,12.04
2023-02-27T09:25:49.900Z,12.08
2023-02-27T09:28:22.769Z,12.14
2023-02-27T09:30:56.173Z,12.21
2023-02-27T09:33:29.649Z,12.34
2023-02-27T09:36:02.383Z,12.45
2023-02-27T09:38:40.998Z,12.58
2023-02-27T09:41:36.011Z,12.66
2023-02-27T09:44:18.740Z,12.72
2023-02-27T09:46:53.114Z,12.78
2023-02-27T09:49:29.430Z,12.87
2023-02-27T09:52:03.084Z,12.95
2023-02-27T09:54:36.477Z,13.02
2023-02-27T09:57:13.982Z,13.09
2023-02-27T09:59:57.570Z,13.16
2023-02-27T10:02:47.312Z,13.20
2023-02-27T10:05:46.363Z,13.21
2023-02-27T10:08:34.296Z,13.25
2023-02-27T10:11:13.361Z,13.30
2023-02-27T10:14:10.513Z,13.36
2023-02-27T10:16:44.168Z,13.39
2023-02-27T10:19:28.094Z,13.44
2023-02-27T10:22:02.630Z,13.46
2023-02-27T10:24:45.950Z,13.45
2023-02-27T10:27:22.801Z,13.47
2023-02-27T10:29:59.887Z,13.48
2023-02-27T10:32:39.088Z,13.50
2023-02-27T10:35:31.475Z,13.49
2023-02-27T10:38:18.713Z,13.48
2023-02-27T10:40:51.942Z,13.45
2023-02-27T10:43:25.157Z,13.41
2023-02-27T10:45:59.740Z,13.35
2023-02-27T10:48:34.461Z,13.31
2023-02-27T10:51:31.637Z,13.26
2023-02-27T10:54:21.978Z,13.21
2023-02-27T10:56:58.694Z,13.13
2023-02-27T10:59:40.989Z,13.08
2023-02-27T11:02:23.926Z,13.01
2023-02-27T11:04:58.844Z,12.95
2023-02-27T11:07:38.821Z,12.90
2023-02-27T11:10:19.307Z,12.83
2023-02-27T11:13:13.185Z,12.80
2023-02-27T11:15:46.949Z,12.78
2023-02-27T11:18:30.481Z,12.78
2023-02-27T11:21:20.752Z,12.81
2023-02-27T11:24:07.949Z,12.87
2023-02-27T11:26:45.650Z,12.96
2023-02-27T11:29:20.875Z,13.05
2023-02-27T11:32:00.239Z,13.10
2023-02-27T11:34:37.578Z,13.11
2023-02-27T11:37:27.275Z,13.10
2023-02-27T11:40:19.632Z,13.08
2023-02-27T11:42:59.298Z,13.06
2023-02-27T11:46:05.052Z,13.03
2023-02-27T11:48:21.654Z,13.00
2023-02-27T11:51:23.331Z,12.96
2023-02-27T11:54:22.049Z,12.94
2023-02-27T11:57:05.381Z,12.87
2023-02-27T12:00:06.871Z,12.81
2023-02-27T12:03:13.835Z,12.77
2023-02-27T12:05:53.906Z,12.66
2023-02-27T12:08:43.332Z,12.58
2023-02-27T12:11:35.880Z,12.49
2023-02-27T12:14:23.049Z,12.42
2023-02-27T12:17:11.949Z,12.37
2023-02-27T12:20:04.579Z,12.35
2023-02-27T12:22:41.902Z,12.32
2023-02-27T12:25:49.368Z,12.29
2023-02-27T12:28:36.837Z,12.26
2023-02-27T12:31:42.050Z,12.22
2023-02-27T12:34:31.867Z,12.18
2023-02-27T12:37:12.740Z,12.13
2023-02-27T12:39:48.404Z,12.08
2023-02-27T12:42:50.337Z,12.05
2023-02-27T12:45:45.902Z,12.02
2023-02-27T12:48:32.786Z,11.99
2023-02-27T12:51:30.490Z,11.92
2023-02-27T12:54:30.180Z,11.86
2023-02-27T12:57:36.463Z,11.82
2023-02-27T13:00:17.318Z,11.77
2023-02-27T13:03:19.303Z,11.74
2023-02-27T13:06:14.705Z,11.73
2023-02-27T13:09:10.547Z,11.73
2023-02-27T13:11:54.031Z,11.73
2023-02-27T13:14:57.000Z,11.71
2023-02-27T13:17:40.140Z,11.67
2023-02-27T13:20:29.837Z,11.62
2023-02-27T13:23:17.498Z,11.57
2023-02-27T13:25:52.384Z,11.53
2023-02-27T13:28:30.262Z,11.47
2023-02-27T13:31:41.168Z,11.43
2023-02-27T13:34:30.374Z,11.40
2023-02-27T13:37:06.955Z,11.36
2023-02-27T13:39:52.124Z,11.31
2023-02-27T13:42:33.658Z,11.28
2023-02-27T13:45:11.056Z,11.23
2023-02-27T13:47:49.364Z,11.20
2023-02-27T13:50:29.656Z,11.19
2023-02-27T13:53:09.925Z,11.19
2023-02-27T13:55:42.735Z,11.16
2023-02-27T13:58:22.848Z,11.15
2023-02-27T14:01:01.513Z,11.13
2023-02-27T14:03:34.781Z,11.11
2023-02-27T14:06:08.379Z,11.09
2023-02-27T14:08:50.737Z,11.07
2023-02-27T14:11:34.914Z,11.05
2023-02-27T14:14:12.773Z,11.03
2023-02-27T14:16:52.396Z,11.02
2023-02-27T14:19:31.966Z,10.98
2023-02-27T14:22:12.488Z,10.95
2023-02-27T14:25:03.561Z,10.89
2023-02-27T14:27:51.120Z,10.86
2023-02-27T14:30:42.768Z,10.81
2023-02-27T14:33:39.639Z,10.78
2023-02-27T14:36:07.251Z,10.75
2023-02-27T14:38:41.280Z,10.73
2023-02-27T14:41:31.188Z,10.71
2023-02-27T14:44:04.481Z,10.69
2023-02-27T14:46:41.910Z,10.65
2023-02-27T14:49:31.201Z,10.62
2023-02-27T14:52:20.179Z,10.58
2023-02-27T14:54:54.670Z,10.55
2023-02-27T14:57:27.884Z,10.50
2023-02-27T15:00:01.073Z,10.47
2023-02-27T15:02:36.913Z,10.46
2023-02-27T15:05:19.878Z,10.45
2023-02-27T15:07:54.847Z,10.43
2023-02-27T15:10:32.372Z,10.43
2023-02-27T15:13:05.718Z,10.44
2023-02-27T15:15:39.268Z,10.41
2023-02-27T15:18:16.419Z,10.41
2023-02-27T15:20:52.507Z,10.40
2023-02-27T15:23:29.244Z,10.38
2023-02-27T15:26:02.339Z,10.32
2023-02-27T15:28:38.817Z,10.27
2023-02-27T15:31:14.908Z,10.21
2023-02-27T15:33:48.423Z,10.16
2023-02-27T15:36:36.062Z,10.12
2023-02-27T15:39:22.991Z,10.09
2023-02-27T15:41:59.982Z,10.06
2023-02-27T15:44:44.499Z,10.06
2023-02-27T15:47:29.805Z,10.05
2023-02-27T15:50:22.549Z,10.04
2023-02-27T15:53:12.466Z,10.00
2023-02-27T15:55:52.332Z,9.95
2023-02-27T15:58:29.897Z,9.95
2023-02-27T16:01:20.596Z,9.91
2023-02-27T16:03:56.332Z,9.88
2023-02-27T16:06:34.228Z,9.88
2023-02-27T16:09:17.984Z,9.85
2023-02-27T16:11:51.411Z,9.82
2023-02-27T16:14:46.646Z,9.78
2023-02-27T16:17:27.803Z,9.75
2023-02-27T16:20:05.490Z,9.72
2023-02-27T16:22:39.620Z,9.71
2023-02-27T16:25:17.311Z,9.71
2023-02-27T16:27:51.655Z,9.71
2023-02-27T16:30:24.965Z,9.71
2023-02-27T16:33:04.059Z,9.68
2023-02-27T16:35:39.082Z,9.67
2023-02-27T16:38:13.805Z,9.64
2023-02-27T16:40:47.067Z,9.64
2023-02-27T16:43:20.136Z,9.62
2023-02-27T16:45:55.440Z,9.58
2023-02-27T16:48:28.635Z,9.57
2023-02-27T16:51:02.206Z,9.54
2023-02-27T16:53:35.125Z,9.52
2023-02-27T16:56:12.831Z,9.51
2023-02-27T16:58:46.475Z,9.47
2023-02-27T17:01:21.326Z,9.43
2023-02-27T17:03:57.989Z,9.41
2023-02-27T17:06:35.051Z,9.38
2023-02-27T17:09:15.320Z,9.35
2023-02-27T17:11:56.800Z,9.35
2023-02-27T17:17:30.769Z,9.22
2023-02-27T17:20:11.714Z,9.18
2023-02-27T17:22:47.086Z,9.16
2023-02-27T17:25:21.398Z,9.13
2023-02-27T17:27:57.437Z,9.10
2023-02-27T17:30:31.451Z,9.08
2023-02-27T17:33:06.213Z,9.09
2023-02-27T17:35:43.843Z,9.10
2023-02-27T17:38:25.986Z,9.10
2023-02-27T17:41:00.057Z,9.09
2023-02-27T17:43:34.294Z,9.07
2023-02-27T17:46:16.075Z,9.08
2023-02-27T17:48:53.364Z,9.07
2023-02-27T17:51:31.874Z,9.08
2023-02-27T17:54:07.836Z,9.07
2023-02-27T17:56:42.318Z,9.04
2023-02-27T17:59:16.691Z,9.01
2023-02-27T18:01:50.454Z,9.01
2023-02-27T18:04:26.151Z,9.01
2023-02-27T18:07:00.505Z,9.00
2023-02-27T18:09:36.152Z,9.00
2023-02-27T18:12:11.122Z,9.00
2023-02-27T18:14:46.861Z,8.99
2023-02-27T18:17:25.117Z,8.97
2023-02-27T18:19:59.390Z,8.96
2023-02-27T18:22:33.916Z,8.96
2023-02-27T18:25:09.950Z,8.96
2023-02-27T18:27:45.226Z,8.98
2023-02-27T18:30:20.915Z,8.98
2023-02-27T18:32:59.773Z,8.96
2023-02-27T18:35:35.376Z,8.98
2023-02-27T18:38:12.035Z,8.99
2023-02-27T18:40:45.469Z,8.99
2023-02-27T18:43:18.849Z,8.95
2023-02-27T18:45:53.729Z,8.92
2023-02-27T18:48:30.292Z,8.87
2023-02-27T18:51:09.737Z,8.80
2023-02-27T18:53:48.366Z,8.78
2023-02-27T18:56:28.727Z,8.73
2023-02-27T18:59:06.278Z,8.66
2023-02-27T19:01:40.172Z,8.64
2023-02-27T19:04:15.421Z,8.59
2023-02-27T19:06:51.254Z,8.58
2023-02-27T19:09:30.589Z,8.57
2023-02-27T19:12:06.571Z,8.59
2023-02-27T19:14:41.157Z,8.58
2023-02-27T19:17:15.373Z,8.59
2023-02-27T19:19:50.388Z,8.58
2023-02-27T19:22:27.477Z,8.56
2023-02-27T19:25:03.523Z,8.56
2023-02-27T19:27:38.319Z,8.55
2023-02-27T19:30:15.640Z,8.54
2023-02-27T19:32:56.163Z,8.51
2023-02-27T19:35:30.288Z,8.49
2023-02-27T19:38:09.709Z,8.49
2023-02-27T19:40:43.801Z,8.47
2023-02-27T19:43:17.075Z,8.46
2023-02-27T19:45:50.082Z,8.45
2023-02-27T19:48:22.851Z,8.44
2023-02-27T19:50:55.682Z,8.43
2023-02-27T19:53:28.609Z,8.40
2023-02-27T19:56:08.729Z,8.39
2023-02-27T19:58:42.639Z,8.38
2023-02-27T20:01:27.678Z,8.36
2023-02-27T20:04:02.670Z,8.34
2023-02-27T20:06:44.198Z,8.32
2023-02-27T20:09:20.600Z,8.31
2023-02-27T20:11:57.873Z,8.32
2023-02-27T20:14:33.025Z,8.32
2023-02-27T20:17:05.986Z,8.32
2023-02-27T20:19:39.309Z,8.33
2023-02-27T20:22:13.963Z,8.32
2023-02-27T20:24:47.233Z,8.31
2023-02-27T20:27:20.694Z,8.31
2023-02-27T20:29:59.672Z,8.30
2023-02-27T20:32:33.187Z,8.32
2023-02-27T20:35:06.972Z,8.32
2023-02-27T20:37:40.330Z,8.30
2023-02-27T20:40:14.087Z,8.27
2023-02-27T20:42:47.140Z,8.29
2023-02-27T20:45:20.345Z,8.30
2023-02-27T20:47:53.934Z,8.29
2023-02-27T20:50:26.739Z,8.29
2023-02-27T20:53:00.009Z,8.26
2023-02-27T20:55:33.450Z,8.22
2023-02-27T20:58:06.427Z,8.20
2023-02-27T21:00:40.572Z,8.21
2023-02-27T21:03:13.698Z,8.16
2023-02-27T21:05:51.082Z,8.12
2023-02-27T21:08:24.970Z,8.11
2023-02-27T21:10:57.678Z,8.12
2023-02-27T21:13:31.051Z,8.11
2023-02-27T21:16:07.563Z,8.07
2023-02-27T21:18:40.912Z,8.07
2023-02-27T21:21:17.313Z,8.08
2023-02-27T21:23:50.572Z,8.10
2023-02-27T21:26:26.948Z,8.11
2023-02-27T21:29:13.204Z,8.12
2023-02-27T21:31:52.030Z,8.13
2023-02-27T21:34:28.069Z,8.16
2023-02-27T21:37:07.516Z,8.15
2023-02-27T21:39:41.686Z,8.15
2023-02-27T21:42:14.372Z,8.13
2023-02-27T21:44:47.623Z,8.07
2023-02-27T21:47:21.151Z,7.92
2023-02-27T21:49:53.870Z,7.83
2023-02-27T21:52:26.684Z,7.77
2023-02-27T21:55:00.713Z,7.73
2023-02-27T21:57:34.142Z,7.73
2023-02-27T22:00:11.368Z,7.73
2023-02-27T22:02:44.098Z,7.70
2023-02-27T22:05:16.986Z,7.66
2023-02-27T22:07:49.894Z,7.61
2023-02-27T22:10:23.271Z,7.57
2023-02-27T22:12:56.357Z,7.52
2023-02-27T22:15:29.214Z,7.41
2023-02-27T22:18:04.963Z,7.35
2023-02-27T22:20:40.209Z,7.34
2023-02-27T22:23:13.539Z,7.32
2023-02-27T22:25:46.367Z,7.31
2023-02-27T22:28:18.940Z,7.29
2023-02-27T22:30:51.795Z,7.28
2023-02-27T22:33:25.045Z,7.32
2023-02-27T22:35:57.817Z,7.33
2023-02-27T22:38:31.267Z,7.28
2023-02-27T22:41:12.812Z,7.22
2023-02-27T22:43:46.013Z,7.17
2023-02-27T22:46:29.669Z,7.11
2023-02-27T22:49:08.510Z,7.10
2023-02-27T22:51:42.173Z,7.11
2023-02-27T22:54:16.976Z,7.11
2023-02-27T22:56:53.054Z,7.10
2023-02-27T22:59:26.704Z,7.05
2023-02-27T23:02:00.362Z,6.99
2023-02-27T23:04:33.264Z,6.88
2023-02-27T23:07:06.509Z,6.83
2023-02-27T23:09:39.545Z,6.78
2023-02-27T23:12:12.238Z,6.76
2023-02-27T23:14:45.612Z,6.72
2023-02-27T23:17:18.370Z,6.68
2023-02-27T23:19:51.031Z,6.67
2023-02-27T23:22:24.738Z,6.63
2023-02-27T23:24:58.212Z,6.54
2023-02-27T23:27:31.189Z,6.47
2023-02-27T23:30:05.175Z,6.40
2023-02-27T23:32:40.196Z,6.30
2023-02-27T23:35:13.821Z,6.20
2023-02-27T23:37:46.740Z,6.09
2023-02-27T23:40:22.489Z,6.00
2023-02-27T23:42:56.139Z,5.89
2023-02-27T23:45:28.851Z,5.73
2023-02-27T23:48:03.077Z,5.58
2023-02-27T23:50:37.452Z,5.46
2023-02-27T23:53:10.660Z,5.36
2023-02-27T23:55:44.301Z,5.29
2023-02-27T23:58:17.405Z,5.24
